sensor_id;sensor_type;location;lat;lon;timestamp;pressure;altitude;pressure_sealevel;temperature;humidity
3780;BME280;1905;52.482;9.802;2023-04-10T00:00:44;101986.88;;;6.31;73.07
3780;BME280;1905;52.482;9.802;2023-04-10T00:03:11;101984.28;;;6.28;73.27
3780;BME280;1905;52.482;9.802;2023-04-10T00:05:41;101982.53;;;6.30;73.07
3780;BME280;1905;52.482;9.802;2023-04-10T00:08:09;101981.66;;;6.25;73.06
3780;BME280;1905;52.482;9.802;2023-04-10T00:10:36;101994.78;;;6.25;73.28
3780;BME280;1905;52.482;9.802;2023-04-10T00:13:04;101991.31;;;6.23;73.14
3780;BME280;1905;52.482;9.802;2023-04-10T00:15:32;101988.69;;;6.17;73.33
3780;BME280;1905;52.482;9.802;2023-04-10T00:18:00;101980.00;;;6.17;73.23
3780;BME280;1905;52.482;9.802;2023-04-10T00:20:27;101980.88;;;6.14;73.02
3780;BME280;1905;52.482;9.802;2023-04-10T00:22:56;101975.66;;;6.11;73.27
3780;BME280;1905;52.482;9.802;2023-04-10T00:25:24;101974.78;;;6.11;73.23
3780;BME280;1905;52.482;9.802;2023-04-10T00:27:52;101965.16;;;6.10;73.09
3780;BME280;1905;52.482;9.802;2023-04-10T00:30:20;101963.41;;;6.07;73.39
3780;BME280;1905;52.482;9.802;2023-04-10T00:32:47;101961.69;;;6.03;73.19
3780;BME280;1905;52.482;9.802;2023-04-10T00:35:15;101957.31;;;6.04;73.50
3780;BME280;1905;52.482;9.802;2023-04-10T00:37:43;101952.94;;;5.98;73.51
3780;BME280;1905;52.482;9.802;2023-04-10T00:40:12;101952.97;;;5.96;73.42
3780;BME280;1905;52.482;9.802;2023-04-10T00:42:40;101948.59;;;5.95;73.23
3780;BME280;1905;52.482;9.802;2023-04-10T00:45:08;101953.84;;;5.94;73.50
3780;BME280;1905;52.482;9.802;2023-04-10T00:47:36;101949.50;;;5.91;73.71
3780;BME280;1905;52.482;9.802;2023-04-10T00:50:04;101946.88;;;5.91;73.04
3780;BME280;1905;52.482;9.802;2023-04-10T00:52:32;101946.00;;;5.88;73.71
3780;BME280;1905;52.482;9.802;2023-04-10T00:55:01;101946.03;;;5.86;73.16
3780;BME280;1905;52.482;9.802;2023-04-10T00:57:30;101952.13;;;5.79;73.55
3780;BME280;1905;52.482;9.802;2023-04-10T00:59:59;101956.50;;;5.80;73.42
3780;BME280;1905;52.482;9.802;2023-04-10T01:02:27;101951.25;;;5.80;72.86
3780;BME280;1905;52.482;9.802;2023-04-10T01:04:55;101958.28;;;5.75;73.45
3780;BME280;1905;52.482;9.802;2023-04-10T01:07:29;101959.13;;;5.74;73.65
3780;BME280;1905;52.482;9.802;2023-04-10T01:10:12;101956.53;;;5.70;73.85
3780;BME280;1905;52.482;9.802;2023-04-10T01:12:50;101956.56;;;5.67;73.35
3780;BME280;1905;52.482;9.802;2023-04-10T01:15:21;101965.28;;;5.66;73.97
3780;BME280;1905;52.482;9.802;2023-04-10T01:17:53;101962.69;;;5.60;73.74
3780;BME280;1905;52.482;9.802;2023-04-10T01:20:23;101957.44;;;5.61;74.23
3780;BME280;1905;52.482;9.802;2023-04-10T01:23:08;101960.94;;;5.57;73.49
3780;BME280;1905;52.482;9.802;2023-04-10T01:25:43;101956.56;;;5.64;73.42
3780;BME280;1905;52.482;9.802;2023-04-10T01:28:23;101960.06;;;5.58;73.85
3780;BME280;1905;52.482;9.802;2023-04-10T01:30:59;101956.59;;;5.52;73.77
3780;BME280;1905;52.482;9.802;2023-04-10T01:33:34;101967.06;;;5.53;73.49
3780;BME280;1905;52.482;9.802;2023-04-10T01:36:06;101960.09;;;5.51;73.92
3780;BME280;1905;52.482;9.802;2023-04-10T01:38:35;101958.34;;;5.47;73.69
3780;BME280;1905;52.482;9.802;2023-04-10T01:41:07;101963.59;;;5.45;74.49
3780;BME280;1905;52.482;9.802;2023-04-10T01:43:34;101962.72;;;5.45;74.25
3780;BME280;1905;52.482;9.802;2023-04-10T01:46:06;101960.97;;;5.45;74.20
3780;BME280;1905;52.482;9.802;2023-04-10T01:48:34;101952.25;;;5.43;74.29
3780;BME280;1905;52.482;9.802;2023-04-10T01:51:02;101954.88;;;5.35;74.28
3780;BME280;1905;52.482;9.802;2023-04-10T01:53:34;101951.38;;;5.33;73.91
3780;BME280;1905;52.482;9.802;2023-04-10T01:56:03;101953.16;;;5.31;74.09
3780;BME280;1905;52.482;9.802;2023-04-10T01:58:38;101944.44;;;5.29;74.26
3780;BME280;1905;52.482;9.802;2023-04-10T02:01:07;101949.66;;;5.29;74.61
3780;BME280;1905;52.482;9.802;2023-04-10T02:03:51;101942.66;;;5.28;74.05
3780;BME280;1905;52.482;9.802;2023-04-10T02:06:26;101940.94;;;5.24;74.21
3780;BME280;1905;52.482;9.802;2023-04-10T02:09:04;101941.84;;;5.19;74.57
3780;BME280;1905;52.482;9.802;2023-04-10T02:11:40;101943.56;;;5.17;74.17
3780;BME280;1905;52.482;9.802;2023-04-10T02:14:11;101935.72;;;5.18;74.32
3780;BME280;1905;52.482;9.802;2023-04-10T02:16:43;101932.22;;;5.16;73.80
3780;BME280;1905;52.482;9.802;2023-04-10T02:19:12;101930.47;;;5.15;74.13
3780;BME280;1905;52.482;9.802;2023-04-10T02:21:43;101924.38;;;5.15;74.08
3780;BME280;1905;52.482;9.802;2023-04-10T02:24:11;101920.88;;;5.10;74.32
3780;BME280;1905;52.482;9.802;2023-04-10T02:26:45;101920.00;;;5.09;74.52
3780;BME280;1905;52.482;9.802;2023-04-10T02:29:13;101927.00;;;5.10;74.47
3780;BME280;1905;52.482;9.802;2023-04-10T02:31:40;101912.16;;;5.08;74.39
3780;BME280;1905;52.482;9.802;2023-04-10T02:34:11;101910.41;;;5.07;74.45
3780;BME280;1905;52.482;9.802;2023-04-10T02:36:38;101908.66;;;5.06;74.00
3780;BME280;1905;52.482;9.802;2023-04-10T02:39:09;101914.78;;;5.03;74.79
3780;BME280;1905;52.482;9.802;2023-04-10T02:41:45;101915.66;;;4.99;74.97
3780;BME280;1905;52.482;9.802;2023-04-10T02:44:13;101909.53;;;5.00;74.51
3780;BME280;1905;52.482;9.802;2023-04-10T02:46:41;101906.91;;;5.00;74.38
3780;BME280;1905;52.482;9.802;2023-04-10T02:49:12;101913.94;;;5.00;74.09
3780;BME280;1905;52.482;9.802;2023-04-10T02:51:39;101912.16;;;4.96;74.82
3780;BME280;1905;52.482;9.802;2023-04-10T02:54:07;101909.56;;;4.94;74.40
3780;BME280;1905;52.482;9.802;2023-04-10T02:56:36;101906.06;;;4.95;74.13
3780;BME280;1905;52.482;9.802;2023-04-10T02:59:03;101898.22;;;4.92;74.64
3780;BME280;1905;52.482;9.802;2023-04-10T03:01:32;101900.81;;;4.92;74.30
3780;BME280;1905;52.482;9.802;2023-04-10T03:04:00;101892.09;;;4.93;74.08
3780;BME280;1905;52.482;9.802;2023-04-10T03:06:35;101895.63;;;4.89;74.67
3780;BME280;1905;52.482;9.802;2023-04-10T03:09:03;101892.97;;;4.91;74.52
3780;BME280;1905;52.482;9.802;2023-04-10T03:11:32;101887.72;;;4.92;73.93
3780;BME280;1905;52.482;9.802;2023-04-10T03:13:59;101892.13;;;4.89;74.51
3780;BME280;1905;52.482;9.802;2023-04-10T03:16:27;101889.50;;;4.84;74.79
3780;BME280;1905;52.482;9.802;2023-04-10T03:18:55;101891.25;;;4.80;74.43
3780;BME280;1905;52.482;9.802;2023-04-10T03:21:23;101885.13;;;4.81;74.36
3780;BME280;1905;52.482;9.802;2023-04-10T03:23:52;101887.75;;;4.81;75.04
3780;BME280;1905;52.482;9.802;2023-04-10T03:26:21;101886.03;;;4.80;74.96
3780;BME280;1905;52.482;9.802;2023-04-10T03:28:50;101878.16;;;4.85;74.83
3780;BME280;1905;52.482;9.802;2023-04-10T03:31:17;101872.94;;;4.79;74.68
3780;BME280;1905;52.482;9.802;2023-04-10T03:33:45;101870.31;;;4.80;74.42
3780;BME280;1905;52.482;9.802;2023-04-10T03:36:13;101868.56;;;4.81;74.91
3780;BME280;1905;52.482;9.802;2023-04-10T03:38:42;101872.94;;;4.79;75.16
3780;BME280;1905;52.482;9.802;2023-04-10T03:41:14;101864.22;;;4.75;74.81
3780;BME280;1905;52.482;9.802;2023-04-10T03:43:41;101860.75;;;4.78;74.71
3780;BME280;1905;52.482;9.802;2023-04-10T03:46:09;101863.34;;;4.78;74.29
3780;BME280;1905;52.482;9.802;2023-04-10T03:48:40;101861.59;;;4.74;74.32
3780;BME280;1905;52.482;9.802;2023-04-10T03:51:09;101860.72;;;4.73;75.14
3780;BME280;1905;52.482;9.802;2023-04-10T03:53:36;101866.84;;;4.72;75.37
3780;BME280;1905;52.482;9.802;2023-04-10T03:56:09;101871.19;;;4.75;74.52
3780;BME280;1905;52.482;9.802;2023-04-10T03:58:38;101863.34;;;4.70;75.15
3780;BME280;1905;52.482;9.802;2023-04-10T04:01:06;101861.59;;;4.74;75.25
3780;BME280;1905;52.482;9.802;2023-04-10T04:03:50;101862.47;;;4.76;74.84
3780;BME280;1905;52.482;9.802;2023-04-10T04:06:42;101861.63;;;4.72;75.14
3780;BME280;1905;52.482;9.802;2023-04-10T04:09:24;101865.09;;;4.71;75.07
3780;BME280;1905;52.482;9.802;2023-04-10T04:12:09;101872.06;;;4.72;74.88
3780;BME280;1905;52.482;9.802;2023-04-10T04:14:59;101865.97;;;4.69;75.07
3780;BME280;1905;52.482;9.802;2023-04-10T04:17:51;101865.97;;;4.69;74.57
3780;BME280;1905;52.482;9.802;2023-04-10T04:20:34;101858.13;;;4.64;74.39
3780;BME280;1905;52.482;9.802;2023-04-10T04:23:29;101857.25;;;4.67;74.54
3780;BME280;1905;52.482;9.802;2023-04-10T04:26:07;101856.38;;;4.66;74.18
3780;BME280;1905;52.482;9.802;2023-04-10T04:28:40;101862.50;;;4.67;74.75
3780;BME280;1905;52.482;9.802;2023-04-10T04:31:41;101858.97;;;4.65;74.78
3780;BME280;1905;52.482;9.802;2023-04-10T04:34:27;101858.13;;;4.60;74.24
3780;BME280;1905;52.482;9.802;2023-04-10T04:37:05;101853.78;;;4.62;74.82
3780;BME280;1905;52.482;9.802;2023-04-10T04:39:51;101865.97;;;4.57;74.83
3780;BME280;1905;52.482;9.802;2023-04-10T04:42:33;101861.63;;;4.56;74.46
3780;BME280;1905;52.482;9.802;2023-04-10T04:45:26;101863.34;;;4.57;75.16
3780;BME280;1905;52.482;9.802;2023-04-10T04:48:10;101855.50;;;4.57;74.91
3780;BME280;1905;52.482;9.802;2023-04-10T04:50:54;101857.25;;;4.52;75.18
3780;BME280;1905;52.482;9.802;2023-04-10T04:53:37;101858.13;;;4.52;75.23
3780;BME280;1905;52.482;9.802;2023-04-10T04:56:24;101860.75;;;4.55;74.54
3780;BME280;1905;52.482;9.802;2023-04-10T04:59:20;101869.44;;;4.51;75.14
3780;BME280;1905;52.482;9.802;2023-04-10T05:02:00;101864.22;;;4.53;74.28
3780;BME280;1905;52.482;9.802;2023-04-10T05:05:01;101863.38;;;4.54;74.18
3780;BME280;1905;52.482;9.802;2023-04-10T05:07:42;101864.22;;;4.53;74.51
3780;BME280;1905;52.482;9.802;2023-04-10T05:10:30;101865.97;;;4.48;74.26
3780;BME280;1905;52.482;9.802;2023-04-10T05:13:09;101859.00;;;4.53;74.70
3780;BME280;1905;52.482;9.802;2023-04-10T05:16:03;101858.13;;;4.54;74.23
3780;BME280;1905;52.482;9.802;2023-04-10T05:18:50;101864.22;;;4.56;74.80
3780;BME280;1905;52.482;9.802;2023-04-10T05:21:42;101859.88;;;4.53;74.23
3780;BME280;1905;52.482;9.802;2023-04-10T05:24:32;101857.25;;;4.58;73.84
3780;BME280;1905;52.482;9.802;2023-04-10T05:27:11;101861.59;;;4.57;74.35
3780;BME280;1905;52.482;9.802;2023-04-10T05:29:59;101864.25;;;4.59;74.54
3780;BME280;1905;52.482;9.802;2023-04-10T05:32:40;101857.25;;;4.64;73.90
3780;BME280;1905;52.482;9.802;2023-04-10T05:35:41;101867.72;;;4.64;73.57
3780;BME280;1905;52.482;9.802;2023-04-10T05:38:22;101857.25;;;4.70;73.84
3780;BME280;1905;52.482;9.802;2023-04-10T05:41:11;101867.72;;;4.70;75.38
3780;BME280;1905;52.482;9.802;2023-04-10T05:43:56;101867.72;;;4.70;73.91
3780;BME280;1905;52.482;9.802;2023-04-10T05:46:44;101867.72;;;4.70;74.79
3780;BME280;1905;52.482;9.802;2023-04-10T05:49:31;101864.22;;;4.80;78.88
3780;BME280;1905;52.482;9.802;2023-04-10T05:52:22;101865.94;;;4.84;77.87
3780;BME280;1905;52.482;9.802;2023-04-10T05:55:10;101863.34;;;4.92;78.46
3780;BME280;1905;52.482;9.802;2023-04-10T05:58:09;101871.16;;;4.93;76.90
3780;BME280;1905;52.482;9.802;2023-04-10T06:00:57;101875.53;;;4.99;77.64
3780;BME280;1905;52.482;9.802;2023-04-10T06:03:57;101876.41;;;5.05;79.42
3780;BME280;1905;52.482;9.802;2023-04-10T06:06:25;101865.88;;;5.11;80.13
3780;BME280;1905;52.482;9.802;2023-04-10T06:08:54;101855.41;;;5.23;80.73
3780;BME280;1905;52.482;9.802;2023-04-10T06:11:23;101863.22;;;5.28;81.07
3780;BME280;1905;52.482;9.802;2023-04-10T06:13:53;101856.22;;;5.30;80.54
3780;BME280;1905;52.482;9.802;2023-04-10T06:16:28;101855.34;;;5.35;80.71
3780;BME280;1905;52.482;9.802;2023-04-10T06:18:57;101858.78;;;5.47;81.76
3780;BME280;1905;52.482;9.802;2023-04-10T06:21:24;101841.31;;;5.53;82.03
3780;BME280;1905;52.482;9.802;2023-04-10T06:23:52;101834.31;;;5.60;82.02
3780;BME280;1905;52.482;9.802;2023-04-10T06:26:20;101836.88;;;5.67;82.01
3780;BME280;1905;52.482;9.802;2023-04-10T06:28:49;101828.97;;;5.78;82.20
3780;BME280;1905;52.482;9.802;2023-04-10T06:31:18;101829.81;;;5.83;81.87
3780;BME280;1905;52.482;9.802;2023-04-10T06:33:48;101830.66;;;5.91;81.24
3780;BME280;1905;52.482;9.802;2023-04-10T06:36:16;101821.00;;;6.01;82.47
3780;BME280;1905;52.482;9.802;2023-04-10T06:38:52;101813.06;;;6.11;82.05
3780;BME280;1905;52.482;9.802;2023-04-10T06:41:21;101814.75;;;6.18;81.69
3780;BME280;1905;52.482;9.802;2023-04-10T06:43:54;101819.06;;;6.24;82.00
3780;BME280;1905;52.482;9.802;2023-04-10T06:46:21;101821.59;;;6.34;82.28
3780;BME280;1905;52.482;9.802;2023-04-10T06:48:49;101818.03;;;6.41;81.80
3780;BME280;1905;52.482;9.802;2023-04-10T06:51:17;101817.09;;;6.50;81.97
3780;BME280;1905;52.482;9.802;2023-04-10T06:53:44;101817.91;;;6.59;81.87
3780;BME280;1905;52.482;9.802;2023-04-10T06:56:12;101819.56;;;6.67;81.28
3780;BME280;1905;52.482;9.802;2023-04-10T06:58:39;101812.50;;;6.76;81.95
3780;BME280;1905;52.482;9.802;2023-04-10T07:01:08;101815.91;;;6.84;81.73
3780;BME280;1905;52.482;9.802;2023-04-10T07:03:36;101815.78;;;6.95;82.04
3780;BME280;1905;52.482;9.802;2023-04-10T07:06:04;101809.53;;;7.08;82.14
3780;BME280;1905;52.482;9.802;2023-04-10T07:08:33;101805.03;;;7.19;82.25
3780;BME280;1905;52.482;9.802;2023-04-10T07:11:00;101797.00;;;7.30;81.77
3780;BME280;1905;52.482;9.802;2023-04-10T07:13:28;101798.63;;;7.41;81.68
3780;BME280;1905;52.482;9.802;2023-04-10T07:15:55;101798.47;;;7.50;80.79
3780;BME280;1905;52.482;9.802;2023-04-10T07:18:24;101794.91;;;7.57;80.44
3780;BME280;1905;52.482;9.802;2023-04-10T07:20:52;101785.06;;;7.71;81.05
3780;BME280;1905;52.482;9.802;2023-04-10T07:23:20;101787.53;;;7.82;80.48
3780;BME280;1905;52.482;9.802;2023-04-10T07:25:47;101789.97;;;7.96;80.47
3780;BME280;1905;52.482;9.802;2023-04-10T07:28:17;101789.75;;;8.08;80.14
3780;BME280;1905;52.482;9.802;2023-04-10T07:30:44;101778.25;;;8.15;79.91
3780;BME280;1905;52.482;9.802;2023-04-10T07:33:12;101774.66;;;8.20;79.69
3780;BME280;1905;52.482;9.802;2023-04-10T07:35:41;101777.88;;;8.39;80.08
3780;BME280;1905;52.482;9.802;2023-04-10T07:38:10;101770.63;;;8.53;77.88
3780;BME280;1905;52.482;9.802;2023-04-10T07:40:38;101780.09;;;8.63;78.72
3780;BME280;1905;52.482;9.802;2023-04-10T07:43:06;101771.94;;;8.77;78.63
3780;BME280;1905;52.482;9.802;2023-04-10T07:45:33;101765.38;;;8.97;77.75
3780;BME280;1905;52.482;9.802;2023-04-10T07:48:01;101771.19;;;9.13;75.88
3780;BME280;1905;52.482;9.802;2023-04-10T07:50:29;101761.41;;;9.20;75.90
3780;BME280;1905;52.482;9.802;2023-04-10T07:52:58;101762.00;;;9.34;76.01
3780;BME280;1905;52.482;9.802;2023-04-10T07:55:28;101766.16;;;9.44;74.32
3780;BME280;1905;52.482;9.802;2023-04-10T07:57:56;101761.47;;;9.58;74.71
3780;BME280;1905;52.482;9.802;2023-04-10T08:00:23;101760.22;;;9.74;74.61
3780;BME280;1905;52.482;9.802;2023-04-10T08:02:51;101753.75;;;9.87;74.49
3780;BME280;1905;52.482;9.802;2023-04-10T08:05:19;101759.56;;;10.01;73.54
3780;BME280;1905;52.482;9.802;2023-04-10T08:07:47;101754.78;;;10.19;73.44
3780;BME280;1905;52.482;9.802;2023-04-10T08:10:16;101751.06;;;10.27;73.03
3780;BME280;1905;52.482;9.802;2023-04-10T08:12:43;101743.47;;;10.47;72.75
3780;BME280;1905;52.482;9.802;2023-04-10T08:15:11;101751.09;;;10.58;72.42
3780;BME280;1905;52.482;9.802;2023-04-10T08:17:38;101741.94;;;10.71;71.80
3780;BME280;1905;52.482;9.802;2023-04-10T08:20:08;101733.38;;;10.94;70.52
3780;BME280;1905;52.482;9.802;2023-04-10T08:22:35;101742.69;;;11.08;69.27
3780;BME280;1905;52.482;9.802;2023-04-10T08:25:04;101737.06;;;11.19;68.73
3780;BME280;1905;52.482;9.802;2023-04-10T08:27:33;101728.59;;;11.37;68.14
3780;BME280;1905;52.482;9.802;2023-04-10T08:30:00;101722.97;;;11.48;68.83
3780;BME280;1905;52.482;9.802;2023-04-10T08:32:28;101728.69;;;11.62;68.74
3780;BME280;1905;52.482;9.802;2023-04-10T08:34:56;101720.19;;;11.81;67.34
3780;BME280;1905;52.482;9.802;2023-04-10T08:37:24;101725.94;;;11.94;67.56
3780;BME280;1905;52.482;9.802;2023-04-10T08:39:52;101721.09;;;12.07;68.21
3780;BME280;1905;52.482;9.802;2023-04-10T08:42:20;101717.03;;;12.23;68.60
3780;BME280;1905;52.482;9.802;2023-04-10T08:44:50;101710.44;;;12.34;65.09
3780;BME280;1905;52.482;9.802;2023-04-10T08:47:20;101707.28;;;12.49;65.18
3780;BME280;1905;52.482;9.802;2023-04-10T08:49:53;101701.47;;;12.63;65.31
3780;BME280;1905;52.482;9.802;2023-04-10T08:52:24;101704.38;;;12.80;65.07
3780;BME280;1905;52.482;9.802;2023-04-10T08:54:53;101703.16;;;12.89;63.56
3780;BME280;1905;52.482;9.802;2023-04-10T08:57:22;101691.94;;;13.07;64.74
3780;BME280;1905;52.482;9.802;2023-04-10T08:59:51;101693.31;;;13.17;62.53
3780;BME280;1905;52.482;9.802;2023-04-10T09:02:20;101690.31;;;13.26;62.67
3780;BME280;1905;52.482;9.802;2023-04-10T09:04:48;101692.25;;;13.44;60.69
3780;BME280;1905;52.482;9.802;2023-04-10T09:07:17;101688.06;;;13.60;61.71
3780;BME280;1905;52.482;9.802;2023-04-10T09:09:45;101678.78;;;13.70;60.30
3780;BME280;1905;52.482;9.802;2023-04-10T09:12:13;101679.34;;;13.79;60.15
3780;BME280;1905;52.482;9.802;2023-04-10T09:14:41;101674.19;;;13.96;61.08
3780;BME280;1905;52.482;9.802;2023-04-10T09:17:15;101671.97;;;14.07;60.67
3780;BME280;1905;52.482;9.802;2023-04-10T09:19:43;101670.72;;;14.15;59.99
3780;BME280;1905;52.482;9.802;2023-04-10T09:22:12;101659.88;;;14.20;58.67
3780;BME280;1905;52.482;9.802;2023-04-10T09:24:41;101655.09;;;14.28;58.03
3780;BME280;1905;52.482;9.802;2023-04-10T09:27:09;101649.56;;;14.34;58.18
3780;BME280;1905;52.482;9.802;2023-04-10T09:29:42;101641.13;;;14.45;57.79
3780;BME280;1905;52.482;9.802;2023-04-10T09:32:11;101636.53;;;14.48;56.29
3780;BME280;1905;52.482;9.802;2023-04-10T09:34:51;101631.78;;;14.55;56.82
3780;BME280;1905;52.482;9.802;2023-04-10T09:37:19;101622.16;;;14.52;56.83
3780;BME280;1905;52.482;9.802;2023-04-10T09:39:48;101617.63;;;14.54;56.51
3780;BME280;1905;52.482;9.802;2023-04-10T09:42:28;101617.88;;;14.68;57.20
3780;BME280;1905;52.482;9.802;2023-04-10T09:44:56;101608.97;;;14.69;59.37
3780;BME280;1905;52.482;9.802;2023-04-10T09:47:26;101593.88;;;14.70;57.12
3780;BME280;1905;52.482;9.802;2023-04-10T09:49:55;101598.91;;;14.76;56.81
3780;BME280;1905;52.482;9.802;2023-04-10T09:52:24;101590.44;;;14.86;57.97
3780;BME280;1905;52.482;9.802;2023-04-10T09:54:53;101578.72;;;14.90;56.09
3780;BME280;1905;52.482;9.802;2023-04-10T09:57:22;101576.78;;;14.94;56.70
3780;BME280;1905;52.482;9.802;2023-04-10T09:59:53;101570.31;;;15.00;55.58
3780;BME280;1905;52.482;9.802;2023-04-10T10:02:23;101572.66;;;15.06;55.87
3780;BME280;1905;52.482;9.802;2023-04-10T10:04:53;101570.66;;;15.11;56.13
3780;BME280;1905;52.482;9.802;2023-04-10T10:07:22;101567.69;;;15.17;54.76
3780;BME280;1905;52.482;9.802;2023-04-10T10:09:51;101567.53;;;15.20;54.96
3780;BME280;1905;52.482;9.802;2023-04-10T10:12:23;101560.19;;;15.25;54.91
3780;BME280;1905;52.482;9.802;2023-04-10T10:15:06;101553.31;;;15.21;53.97
3780;BME280;1905;52.482;9.802;2023-04-10T10:17:41;101549.00;;;15.18;54.53
3780;BME280;1905;52.482;9.802;2023-04-10T10:20:12;101545.38;;;15.19;52.81
3780;BME280;1905;52.482;9.802;2023-04-10T10:22:40;101550.56;;;15.22;53.28
3780;BME280;1905;52.482;9.802;2023-04-10T10:25:08;101538.91;;;15.25;52.33
3780;BME280;1905;52.482;9.802;2023-04-10T10:27:37;101531.78;;;15.25;51.08
3780;BME280;1905;52.482;9.802;2023-04-10T10:30:06;101537.97;;;15.26;52.09
3780;BME280;1905;52.482;9.802;2023-04-10T10:32:54;101528.97;;;15.28;51.61
3780;BME280;1905;52.482;9.802;2023-04-10T10:35:29;101528.66;;;15.34;51.30
3780;BME280;1905;52.482;9.802;2023-04-10T10:37:58;101525.00;;;15.37;49.81
3780;BME280;1905;52.482;9.802;2023-04-10T10:40:29;101512.47;;;15.39;51.16
3780;BME280;1905;52.482;9.802;2023-04-10T10:43:06;101497.44;;;15.38;50.26
3780;BME280;1905;52.482;9.802;2023-04-10T10:45:39;101498.06;;;15.43;50.59
3780;BME280;1905;52.482;9.802;2023-04-10T10:48:10;101489.81;;;15.49;52.14
3780;BME280;1905;52.482;9.802;2023-04-10T10:50:53;101495.13;;;15.49;51.22
3780;BME280;1905;52.482;9.802;2023-04-10T10:53:33;101477.97;;;15.55;50.18
3780;BME280;1905;52.482;9.802;2023-04-10T10:56:32;101475.38;;;15.53;50.86
3780;BME280;1905;52.482;9.802;2023-04-10T10:59:00;101478.75;;;15.57;52.13
3780;BME280;1905;52.482;9.802;2023-04-10T11:01:28;101467.97;;;15.60;50.98
3780;BME280;1905;52.482;9.802;2023-04-10T11:03:56;101466.13;;;15.60;51.44
3780;BME280;1905;52.482;9.802;2023-04-10T11:06:49;101453.63;;;15.62;49.89
3780;BME280;1905;52.482;9.802;2023-04-10T11:09:42;101457.06;;;15.64;51.21
3780;BME280;1905;52.482;9.802;2023-04-10T11:12:11;101449.84;;;15.66;50.26
3780;BME280;1905;52.482;9.802;2023-04-10T11:14:39;101438.88;;;15.72;50.56
3780;BME280;1905;52.482;9.802;2023-04-10T11:17:07;101429.94;;;15.73;50.05
3780;BME280;1905;52.482;9.802;2023-04-10T11:19:56;101421.88;;;15.75;51.78
3780;BME280;1905;52.482;9.802;2023-04-10T11:22:26;101423.66;;;15.74;50.28
3780;BME280;1905;52.482;9.802;2023-04-10T11:24:56;101411.91;;;15.78;50.75
3780;BME280;1905;52.482;9.802;2023-04-10T11:27:43;101408.75;;;15.87;50.38
3780;BME280;1905;52.482;9.802;2023-04-10T11:30:30;101394.16;;;15.94;49.85
3780;BME280;1905;52.482;9.802;2023-04-10T11:32:58;101395.81;;;15.97;49.45
3780;BME280;1905;52.482;9.802;2023-04-10T11:35:26;101393.28;;;15.94;50.60
3780;BME280;1905;52.482;9.802;2023-04-10T11:38:13;101379.31;;;16.06;50.23
3780;BME280;1905;52.482;9.802;2023-04-10T11:40:59;101385.31;;;16.09;49.53
3780;BME280;1905;52.482;9.802;2023-04-10T11:43:27;101371.22;;;16.07;49.02
3780;BME280;1905;52.482;9.802;2023-04-10T11:46:02;101363.22;;;16.07;49.27
3780;BME280;1905;52.482;9.802;2023-04-10T11:48:30;101358.66;;;16.09;50.24
3780;BME280;1905;52.482;9.802;2023-04-10T11:50:58;101351.09;;;16.18;50.24
3780;BME280;1905;52.482;9.802;2023-04-10T11:53:34;101337.44;;;16.24;49.31
3780;BME280;1905;52.482;9.802;2023-04-10T11:56:01;101342.50;;;16.28;50.41
3780;BME280;1905;52.482;9.802;2023-04-10T11:58:29;101339.59;;;16.33;51.18
3780;BME280;1905;52.482;9.802;2023-04-10T12:00:58;101332.34;;;16.35;48.59
3780;BME280;1905;52.482;9.802;2023-04-10T12:03:34;101345.34;;;16.41;49.69
3780;BME280;1905;52.482;9.802;2023-04-10T12:06:04;101333.53;;;16.45;48.29
3780;BME280;1905;52.482;9.802;2023-04-10T12:08:35;101335.75;;;16.52;47.01
3780;BME280;1905;52.482;9.802;2023-04-10T12:11:03;101336.66;;;16.53;47.97
3780;BME280;1905;52.482;9.802;2023-04-10T12:13:31;101329.94;;;16.61;48.57
3780;BME280;1905;52.482;9.802;2023-04-10T12:16:00;101327.38;;;16.60;48.28
3780;BME280;1905;52.482;9.802;2023-04-10T12:18:28;101323.22;;;16.70;47.34
3780;BME280;1905;52.482;9.802;2023-04-10T12:20:57;101305.31;;;16.72;48.98
3780;BME280;1905;52.482;9.802;2023-04-10T12:23:26;101305.34;;;16.86;47.51
3780;BME280;1905;52.482;9.802;2023-04-10T12:26:07;101290.09;;;16.88;48.25
3780;BME280;1905;52.482;9.802;2023-04-10T12:28:36;101289.56;;;16.97;48.11
3780;BME280;1905;52.482;9.802;2023-04-10T12:31:04;101292.72;;;17.04;47.21
3780;BME280;1905;52.482;9.802;2023-04-10T12:33:32;101284.31;;;17.10;49.00
3780;BME280;1905;52.482;9.802;2023-04-10T12:36:00;101282.31;;;17.13;48.05
3780;BME280;1905;52.482;9.802;2023-04-10T12:38:38;101286.53;;;17.17;46.82
3780;BME280;1905;52.482;9.802;2023-04-10T12:41:08;101278.63;;;17.16;46.74
3780;BME280;1905;52.482;9.802;2023-04-10T12:43:38;101286.31;;;17.20;46.35
3780;BME280;1905;52.482;9.802;2023-04-10T12:46:07;101291.22;;;17.28;48.48
3780;BME280;1905;52.482;9.802;2023-04-10T12:48:35;101281.97;;;17.34;45.83
3780;BME280;1905;52.482;9.802;2023-04-10T12:51:06;101272.63;;;17.41;46.74
3780;BME280;1905;52.482;9.802;2023-04-10T12:53:41;101256.41;;;17.44;47.35
3780;BME280;1905;52.482;9.802;2023-04-10T12:56:11;101263.47;;;17.45;45.72
3780;BME280;1905;52.482;9.802;2023-04-10T12:58:39;101264.97;;;17.49;45.42
3780;BME280;1905;52.482;9.802;2023-04-10T13:01:08;101265.84;;;17.49;45.76
3780;BME280;1905;52.482;9.802;2023-04-10T13:03:37;101255.84;;;17.53;45.83
3780;BME280;1905;52.482;9.802;2023-04-10T13:06:06;101251.16;;;17.56;45.10
3780;BME280;1905;52.482;9.802;2023-04-10T13:08:34;101245.56;;;17.61;45.26
3780;BME280;1905;52.482;9.802;2023-04-10T13:11:05;101243.06;;;17.58;45.43
3780;BME280;1905;52.482;9.802;2023-04-10T13:13:34;101239.16;;;17.63;45.05
3780;BME280;1905;52.482;9.802;2023-04-10T13:16:01;101237.13;;;17.67;44.55
3780;BME280;1905;52.482;9.802;2023-04-10T13:18:29;101233.31;;;17.71;45.84
3780;BME280;1905;52.482;9.802;2023-04-10T13:20:56;101223.34;;;17.87;50.03
3780;BME280;1905;52.482;9.802;2023-04-10T13:23:26;101218.56;;;17.92;48.68
3780;BME280;1905;52.482;9.802;2023-04-10T13:25:53;101212.69;;;18.00;46.25
3780;BME280;1905;52.482;9.802;2023-04-10T13:28:22;101201.81;;;18.03;47.30
3780;BME280;1905;52.482;9.802;2023-04-10T13:30:51;101200.53;;;18.08;45.13
3780;BME280;1905;52.482;9.802;2023-04-10T13:33:18;101182.56;;;18.10;44.63
3780;BME280;1905;52.482;9.802;2023-04-10T13:35:46;101189.25;;;18.17;44.57
3780;BME280;1905;52.482;9.802;2023-04-10T13:38:13;101177.69;;;18.17;45.82
3780;BME280;1905;52.482;9.802;2023-04-10T13:40:41;101170.00;;;18.12;44.74
3780;BME280;1905;52.482;9.802;2023-04-10T13:43:08;101168.47;;;18.21;45.24
3780;BME280;1905;52.482;9.802;2023-04-10T13:45:36;101166.38;;;18.26;44.59